Time;durP1;ratioP1;P1;durP2;ratioP2;P2;SDS_P1;SDS_P2;PMS_P1;PMS_P2;Temp;Humidity;BMP_temperature;BMP_pressure;BME280_temperature;BME280_humidity;BME280_pressure;Samples;Min_cycle;Max_cycle;Signal;HPM_P1;HPM_P2
2022/09/25 00:00:26;;;;;;;3.35;2.80;;;;;;;26.10;80.48;97698.47;4987821;28;20054;-65
2022/09/25 00:03:10;;;;;;;4.68;3.28;;;;;;;26.03;80.39;97700.19;4999919;28;20068;-66
2022/09/25 00:06:05;;;;;;;6.13;3.92;;;;;;;26.00;80.42;97700.84;5006996;28;20100;-65
2022/09/25 00:08:55;;;;;;;6.00;4.28;;;;;;;25.87;80.54;97699.97;4981045;28;20184;-65
2022/09/25 00:11:49;;;;;;;5.93;4.47;;;;;;;25.87;80.49;97698.06;4987773;28;20046;-65
2022/09/25 00:14:31;;;;;;;6.28;4.82;;;;;;;25.95;80.98;97710.13;4987219;28;20046;-65
2022/09/25 00:17:20;;;;;;;8.73;5.90;;;;;;;25.88;80.50;97704.34;4987147;28;20058;-65
2022/09/25 00:20:09;;;;;;;10.65;6.68;;;;;;;25.95;80.64;97710.13;4987477;28;20479;-65
2022/09/25 00:23:01;;;;;;;13.23;8.10;;;;;;;25.92;80.93;97706.09;4987172;28;20050;-65
2022/09/25 00:25:55;;;;;;;19.05;13.68;;;;;;;24.95;83.76;97705.25;4987721;28;20133;-65
2022/09/25 00:28:36;;;;;;;18.67;12.93;;;;;;;25.47;82.00;97706.84;4987575;28;20046;-65
2022/09/25 00:31:26;;;;;;;21.73;14.98;;;;;;;25.61;81.68;97714.00;4986228;28;20078;-65
2022/09/25 00:34:10;;;;;;;23.25;14.45;;;;;;;25.88;81.07;97721.63;4985859;28;20054;-65
2022/09/25 00:37:05;;;;;;;19.88;14.80;;;;;;;25.93;80.86;97728.91;4988182;28;20073;-65
2022/09/25 00:40:01;;;;;;;30.55;17.67;;;;;;;25.97;80.64;97730.63;4986343;28;20047;-66
2022/09/25 00:42:50;;;;;;;28.17;18.42;;;;;;;25.89;80.59;97739.75;4986775;28;20502;-65
2022/09/25 00:45:39;;;;;;;29.27;19.77;;;;;;;26.00;80.42;97750.34;4985769;28;20109;-65
2022/09/25 00:48:21;;;;;;;30.55;20.35;;;;;;;26.07;80.24;97759.63;4986369;28;20046;-65
2022/09/25 00:51:11;;;;;;;28.40;19.58;;;;;;;25.87;80.69;97766.78;4986631;28;20066;-64
2022/09/25 00:54:03;;;;;;;31.20;21.30;;;;;;;26.09;80.19;97768.34;4986692;28;20129;-65
2022/09/25 00:56:55;;;;;;;43.83;24.58;;;;;;;25.87;80.54;97772.28;4986392;28;20078;-66
2022/09/25 00:59:42;;;;;;;35.22;23.25;;;;;;;25.87;80.54;97766.78;4986642;28;20054;-65
2022/09/25 01:02:38;;;;;;;38.33;25.00;;;;;;;25.90;81.17;97762.53;4984422;28;20141;-65
2022/09/25 01:05:34;;;;;;;41.30;25.83;;;;;;;26.00;80.61;97767.63;4986263;28;20070;-65
2022/09/25 01:08:29;;;;;;;42.90;26.52;;;;;;;26.08;80.24;97779.69;4986054;28;20729;-66
2022/09/25 01:11:11;;;;;;;40.58;25.92;;;;;;;26.06;80.84;97787.47;4970132;28;20133;-66
2022/09/25 01:14:02;;;;;;;42.70;24.90;;;;;;;26.16;80.15;97785.09;4986352;28;20050;-65
2022/09/25 01:17:01;;;;;;;39.20;25.65;;;;;;;26.18;80.36;97782.03;4986266;28;20129;-65
2022/09/25 01:20:02;;;;;;;35.58;23.02;;;;;;;26.20;79.90;97792.66;4985799;28;20120;-66
2022/09/25 01:22:54;;;;;;;35.60;23.23;;;;;;;26.15;80.38;97780.72;4986075;28;20054;-65
2022/09/25 01:25:53;;;;;;;48.35;25.13;;;;;;;26.03;80.26;97783.47;4986189;28;20168;-66
2022/09/25 01:28:43;;;;;;;39.28;24.23;;;;;;;26.16;80.28;97781.56;4986084;28;20092;-65
2022/09/25 01:31:40;;;;;;;44.83;23.42;;;;;;;25.85;80.89;97782.78;4985991;28;20116;-66
2022/09/25 01:34:40;;;;;;;32.75;20.73;;;;;;;25.94;80.49;97778.03;4985524;28;20486;-66
2022/09/25 01:37:44;;;;;;;30.15;20.05;;;;;;;26.07;79.82;97783.59;4986102;28;20115;-66
2022/09/25 01:40:40;;;;;;;27.33;17.08;;;;;;;26.04;80.12;97787.00;4968671;28;20076;-65
2022/09/25 01:43:45;;;;;;;25.92;16.33;;;;;;;25.90;79.84;97785.31;4968012;28;20046;-65
2022/09/25 01:46:33;;;;;;;23.98;15.82;;;;;;;26.02;80.15;97786.53;4984656;28;20054;-66
2022/09/25 01:49:31;;;;;;;;;;;;;;;26.04;79.68;97787.78;4970332;28;20062;-65
2022/09/25 01:52:19;;;;;;;28.67;15.90;;;;;;;26.10;80.28;97793.88;4965347;28;19932;-66
2022/09/25 01:55:46;;;;;;;24.52;16.23;;;;;;;25.93;80.60;97803.13;4965006;28;20055;-66
2022/09/25 01:58:36;;;;;;;25.88;16.20;;;;;;;26.10;79.77;97805.72;4980416;28;20073;-66
2022/09/25 02:01:34;;;;;;;28.42;17.85;;;;;;;26.00;80.73;97811.63;4969590;28;20069;-66
2022/09/25 02:04:20;;;;;;;26.92;17.85;;;;;;;26.14;80.34;97809.38;4979745;28;20054;-66
2022/09/25 02:07:15;;;;;;;32.10;20.43;;;;;;;26.08;80.33;97804.44;4984670;28;20050;-66
2022/09/25 02:10:35;;;;;;;29.20;19.05;;;;;;;25.58;82.10;97811.63;4985309;28;20347;-66
2022/09/25 02:13:28;;;;;;;35.60;20.77;;;;;;;26.11;80.73;97812.00;4978306;28;20054;-66
2022/09/25 02:16:25;;;;;;;48.03;23.80;;;;;;;26.18;80.62;97813.06;5000786;28;20056;-66
2022/09/25 02:22:35;;;;;;;40.58;23.25;;;;;;;26.13;80.06;97820.72;5007165;28;20049;-66
2022/09/25 02:25:21;;;;;;;39.63;23.73;;;;;;;25.84;81.80;97821.63;4996332;28;20051;-65
2022/09/25 02:28:10;;;;;;;40.55;24.27;;;;;;;26.22;80.76;97832.44;4987866;28;20078;-66
2022/09/25 02:30:54;;;;;;;36.20;22.73;;;;;;;26.31;80.08;97837.84;4988676;28;20066;-65
2022/09/25 02:33:49;;;;;;;34.03;22.67;;;;;;;26.35;79.40;97839.59;4971713;28;20062;-66
2022/09/25 02:36:25;;;;;;;39.47;25.15;;;;;;;25.91;81.22;97850.19;4968790;28;20509;-67
2022/09/25 02:39:24;;;;;;;41.75;23.92;;;;;;;26.81;77.81;97849.78;4971124;28;20045;-68
2022/09/25 02:42:35;;;;;;;40.10;25.05;;;;;;;26.89;77.22;97857.16;4950688;28;20122;-68
2022/09/25 02:45:36;;;;;;;42.00;25.50;;;;;;;26.90;77.05;97864.25;4965393;28;20070;-72
2022/09/25 02:48:27;;;;;;;43.42;27.17;;;;;;;27.20;76.49;97869.56;4968072;28;20750;-71
2022/09/25 02:51:33;;;;;;;45.38;28.40;;;;;;;27.26;75.93;97868.19;4967906;28;20062;-72
2022/09/25 02:54:31;;;;;;;54.42;32.97;;;;;;;27.00;76.06;97866.56;4968044;28;20047;-70
2022/09/25 02:57:31;;;;;;;52.17;31.55;;;;;;;27.20;75.56;97872.31;4967042;28;20118;-70
2022/09/25 03:00:14;;;;;;;50.78;29.38;;;;;;;27.25;75.71;97870.16;4968002;28;20054;-70
2022/09/25 03:03:06;;;;;;;43.15;27.10;;;;;;;27.34;75.13;97878.28;4968218;28;20051;-71
2022/09/25 03:05:50;;;;;;;30.45;20.60;;;;;;;27.06;75.10;97875.41;4966874;28;20047;-72
2022/09/25 03:08:44;;;;;;;25.73;16.30;;;;;;;26.99;74.60;97878.72;4968089;28;20042;-70
2022/09/25 03:11:40;;;;;;;22.98;16.00;;;;;;;27.42;74.49;97885.66;4968940;28;20086;-70
2022/09/25 03:14:22;;;;;;;19.48;12.27;;;;;;;26.88;75.71;97894.06;4968559;28;20078;-70
2022/09/25 03:17:14;;;;;;;17.95;11.00;;;;;;;27.44;73.47;97894.38;4969075;28;20054;-70
2022/09/25 03:19:56;;;;;;;16.05;10.32;;;;;;;27.58;74.09;97895.97;4969041;28;20047;-70
2022/09/25 03:22:45;;;;;;;13.80;9.43;;;;;;;27.92;72.57;97887.19;4968912;28;20054;-70
2022/09/25 03:25:27;;;;;;;13.70;9.23;;;;;;;27.58;73.46;97898.72;4967578;28;20134;-70
2022/09/25 03:28:16;;;;;;;14.25;9.82;;;;;;;27.48;74.23;97909.06;4968480;28;20074;-70
2022/09/25 03:31:03;;;;;;;15.75;10.23;;;;;;;27.85;72.70;97908.22;4969320;28;20043;-70
2022/09/25 03:33:52;;;;;;;14.38;9.40;;;;;;;28.28;71.91;97915.03;4963866;28;20858;-70
2022/09/25 03:36:36;;;;;;;14.73;9.80;;;;;;;28.12;72.24;97912.97;4968600;28;20522;-71
2022/09/25 03:39:31;;;;;;;13.60;8.32;;;;;;;27.56;73.09;97917.56;4982036;28;20635;-70
2022/09/25 03:42:07;;;;;;;13.00;8.52;;;;;;;27.56;73.39;97925.84;4986867;28;20113;-70
2022/09/25 03:44:55;;;;;;;10.10;7.72;;;;;;;27.84;72.41;97925.88;4988003;28;20136;-70
2022/09/25 03:47:37;;;;;;;12.82;8.80;;;;;;;28.13;71.12;97919.31;4987801;28;20050;-71
2022/09/25 03:50:26;;;;;;;13.25;9.20;;;;;;;28.36;71.01;97916.03;4989568;28;20082;-70
2022/09/25 03:53:09;;;;;;;12.57;8.55;;;;;;;28.11;71.12;97927.16;4987156;28;20050;-70
2022/09/25 03:55:57;;;;;;;10.25;7.53;;;;;;;28.53;70.57;97937.81;4987974;28;20460;-71
2022/09/25 03:58:39;;;;;;;11.15;7.78;;;;;;;28.42;71.12;97942.22;4989537;28;20049;-70
2022/09/25 04:01:29;;;;;;;10.10;7.15;;;;;;;28.48;70.50;97944.34;4987097;28;20061;-70
2022/09/25 04:04:10;;;;;;;9.35;6.40;;;;;;;28.63;71.61;97947.56;4987269;28;20046;-71
2022/09/25 04:06:59;;;;;;;11.70;6.55;;;;;;;28.79;70.53;97944.81;4988128;28;20450;-71
2022/09/25 04:09:41;;;;;;;9.38;5.70;;;;;;;29.04;69.71;97948.22;4988669;28;20476;-71
2022/09/25 04:12:30;;;;;;;4.78;2.97;;;;;;;28.99;67.13;97954.84;4989969;28;20054;-71
2022/09/25 04:15:22;;;;;;;3.40;2.50;;;;;;;28.98;68.50;97964.25;4987372;28;20058;-71
2022/09/25 04:18:05;;;;;;;4.07;2.63;;;;;;;29.66;67.86;97959.66;4987395;28;20046;-71
2022/09/25 04:20:55;;;;;;;3.75;2.33;;;;;;;29.91;66.37;97965.00;4986681;28;20054;-72
2022/09/25 04:23:38;;;;;;;6.32;3.30;;;;;;;29.83;66.00;97975.91;4967453;28;20043;-70
2022/09/25 04:26:27;;;;;;;5.25;3.38;;;;;;;29.94;65.63;97969.81;4962408;28;20074;-72
2022/09/25 04:29:16;;;;;;;5.80;3.42;;;;;;;30.57;64.13;97964.06;4967981;28;20113;-71
2022/09/25 04:35:06;;;;;;;4.65;3.25;;;;;;;30.39;64.08;97963.69;4982400;28;20784;-73
2022/09/25 04:37:54;;;;;;;5.07;3.40;;;;;;;30.50;63.44;97971.44;4988274;28;20156;-76
2022/09/25 04:40:37;;;;;;;10.38;3.95;;;;;;;30.03;66.71;97982.28;4986889;28;20801;-77
2022/09/25 04:43:25;;;;;;;8.07;4.57;;;;;;;29.29;67.41;97979.28;4984333;28;20058;-74
2022/09/25 04:46:09;;;;;;;4.50;3.67;;;;;;;29.48;67.97;97989.63;4986116;28;20065;-73
2022/09/25 04:49:02;;;;;;;5.45;3.83;;;;;;;29.38;67.43;97982.69;4986657;28;20136;-77
2022/09/25 04:51:44;;;;;;;6.53;3.60;;;;;;;29.14;67.35;97993.91;4981627;28;20114;-77
2022/09/25 04:54:33;;;;;;;4.55;2.95;;;;;;;29.33;68.36;97991.25;4980714;28;20105;-74
2022/09/25 04:57:25;;;;;;;4.18;2.88;;;;;;;29.49;66.99;97988.50;4989043;28;20058;-75
2022/09/25 05:00:31;;;;;;;4.20;3.10;;;;;;;29.02;69.11;98006.59;4986042;28;20117;-77
2022/09/25 05:03:19;;;;;;;3.60;2.90;;;;;;;29.63;68.29;98004.63;4978894;28;20550;-76
2022/09/25 05:06:01;;;;;;;4.88;2.90;;;;;;;29.66;66.82;98007.47;4984965;28;20038;-75
2022/09/25 05:08:52;;;;;;;6.85;3.03;;;;;;;29.85;67.48;98012.31;4986388;28;20557;-75
2022/09/25 05:11:34;;;;;;;6.00;2.97;;;;;;;29.97;67.31;98013.34;4986454;28;20058;-75
2022/09/25 05:14:23;;;;;;;4.35;2.65;;;;;;;30.08;65.02;98014.41;4985699;28;20473;-76
2022/09/25 05:17:14;;;;;;;3.78;2.88;;;;;;;30.61;66.35;98006.47;4983501;28;20050;-74
2022/09/25 05:20:03;;;;;;;6.03;3.53;;;;;;;30.70;63.69;98005.44;4967682;28;20148;-74
2022/09/25 05:22:46;;;;;;;6.95;3.38;;;;;;;30.59;65.07;98003.28;4985125;28;20058;-70
2022/09/25 05:25:34;;;;;;;5.05;2.90;;;;;;;30.46;64.10;98004.59;4985596;28;20109;-69
2022/09/25 05:28:16;;;;;;;5.43;3.17;;;;;;;30.30;66.33;98017.63;4977802;28;20069;-70
2022/09/25 05:31:07;;;;;;;4.75;2.65;;;;;;;30.04;65.43;98019.06;4985014;28;20426;-71
2022/09/25 05:33:50;;;;;;;5.18;2.95;;;;;;;29.55;66.53;98019.44;4985464;28;20054;-71
2022/09/25 05:36:39;;;;;;;2.83;2.53;;;;;;;29.88;66.37;98027.38;4985406;28;20113;-71
2022/09/25 05:39:27;;;;;;;5.53;2.67;;;;;;;29.82;66.18;98032.38;4975162;28;20509;-71
2022/09/25 05:42:22;;;;;;;11.88;3.08;;;;;;;30.01;66.50;98025.31;4965604;28;20588;-70
2022/09/25 05:44:58;;;;;;;4.00;3.13;;;;;;;30.42;64.31;98031.38;4966592;28;20050;-71
2022/09/25 05:47:47;;;;;;;9.38;3.03;;;;;;;30.49;63.92;98028.75;4965632;28;20406;-70
2022/09/25 05:50:31;;;;;;;5.35;3.35;;;;;;;31.02;66.51;98022.72;4985129;28;20050;-71
2022/09/25 05:53:20;;;;;;;5.82;3.30;;;;;;;30.48;63.99;98023.59;4968409;28;20054;-70
2022/09/25 05:56:11;;;;;;;5.13;3.40;;;;;;;31.34;66.02;98023.31;4982465;28;20058;-72
2022/09/25 05:58:53;;;;;;;6.03;3.83;;;;;;;31.13;63.93;98023.75;4985687;28;20058;-71
2022/09/25 06:01:43;;;;;;;8.93;5.63;;;;;;;31.74;62.38;98021.25;4980032;28;20058;-74
2022/09/25 06:04:39;;;;;;;10.90;7.15;;;;;;;31.38;61.98;98021.41;4976254;28;20051;-72
2022/09/25 06:07:28;;;;;;;14.77;8.98;;;;;;;30.98;63.04;98021.88;4975798;28;20058;-72
2022/09/25 06:10:11;;;;;;;11.45;7.50;;;;;;;30.55;63.71;98024.53;4934412;28;20113;-74
2022/09/25 06:13:03;;;;;;;11.73;7.20;;;;;;;31.16;62.10;98022.19;4971786;28;20102;-74
2022/09/25 06:15:52;;;;;;;13.48;8.25;;;;;;;31.48;60.81;98022.78;4982696;28;20042;-74
2022/09/25 06:18:36;;;;;;;12.27;8.57;;;;;;;31.22;61.26;98020.72;4980920;28;20387;-74
2022/09/25 06:21:25;;;;;;;9.93;7.72;;;;;;;31.06;61.76;98015.28;4960065;28;20070;-74
2022/09/25 06:24:14;;;;;;;13.05;7.93;;;;;;;30.98;63.26;98014.34;4966356;28;20128;-71
2022/09/25 06:27:04;;;;;;;13.68;7.88;;;;;;;30.70;63.97;98013.75;4966640;28;20355;-71
2022/09/25 06:29:46;;;;;;;13.77;9.27;;;;;;;30.87;61.55;98013.31;4984498;28;20042;-71
2022/09/25 06:32:36;;;;;;;11.30;8.65;;;;;;;30.96;63.70;98013.13;4965777;28;20058;-72
2022/09/25 06:35:18;;;;;;;14.13;9.77;;;;;;;30.90;63.70;98020.94;4965409;28;20181;-70
2022/09/25 06:38:08;;;;;;;15.15;10.93;;;;;;;31.00;63.09;98014.78;4977928;28;20120;-70
2022/09/25 06:41:05;;;;;;;15.90;11.60;;;;;;;30.94;62.31;98010.72;4982629;28;20049;-71
2022/09/25 06:43:41;;;;;;;19.77;11.70;;;;;;;30.85;63.17;98007.34;4983950;28;20054;-72
2022/09/25 06:46:36;;;;;;;22.65;12.95;;;;;;;31.60;62.19;98002.38;4984633;28;20058;-73
2022/09/25 06:49:12;;;;;;;12.65;10.32;;;;;;;31.15;62.30;98003.97;4981951;28;20057;-73
2022/09/25 06:52:01;;;;;;;12.88;10.85;;;;;;;31.84;63.98;98005.94;5006130;28;20042;-74
2022/09/25 06:54:43;;;;;;;17.95;11.45;;;;;;;31.25;62.42;98002.56;4992830;28;20061;-73
2022/09/25 06:57:35;;;;;;;13.25;11.70;;;;;;;31.91;60.34;97995.75;4976240;28;20786;-73
2022/09/25 07:00:18;;;;;;;16.33;12.25;;;;;;;32.26;60.38;98002.22;4983540;28;20146;-74
2022/09/25 07:06:10;;;;;;;15.38;12.98;;;;;;;31.86;59.68;97992.50;4986875;28;20069;-73
2022/09/25 07:09:06;;;;;;;21.48;13.75;;;;;;;31.98;60.91;97995.84;4982812;28;20730;-74
2022/09/25 07:11:42;;;;;;;20.00;14.73;;;;;;;31.85;59.60;97994.44;4986585;28;20050;-75
2022/09/25 07:14:37;;;;;;;18.80;15.07;;;;;;;31.99;60.44;97994.66;4987375;28;20053;-76
2022/09/25 07:17:13;;;;;;;23.42;14.63;;;;;;;31.70;59.56;97989.84;4983408;28;20061;-75
2022/09/25 07:20:02;;;;;;;22.40;14.88;;;;;;;32.39;58.83;97989.69;4980276;28;20530;-76
2022/09/25 07:22:45;;;;;;;22.73;15.10;;;;;;;32.44;58.27;97983.78;4978894;28;20065;-74
2022/09/25 07:25:40;;;;;;;23.75;14.82;;;;;;;31.64;59.92;97996.91;4981540;28;20124;-71
2022/09/25 07:28:18;;;;;;;18.42;14.93;;;;;;;31.58;61.51;97996.41;4986338;28;20065;-74
2022/09/25 07:31:18;;;;;;;17.30;15.45;;;;;;;31.97;58.59;97987.91;4987003;28;20061;-74
2022/09/25 07:34:07;;;;;;;19.70;16.10;;;;;;;31.97;58.35;97983.16;4986521;28;20144;-74
2022/09/25 07:37:02;;;;;;;24.20;15.95;;;;;;;31.68;62.12;97984.69;4986531;28;20056;-75
2022/09/25 07:39:57;;;;;;;17.00;15.23;;;;;;;31.79;59.61;97990.41;4986175;28;20053;-74
2022/09/25 07:42:33;;;;;;;18.55;16.63;;;;;;;31.30;58.94;97985.59;4985615;28;20077;-74
2022/09/25 07:45:28;;;;;;;17.90;16.10;;;;;;;31.72;60.75;97987.50;4984536;28;20050;-75
2022/09/25 07:48:05;;;;;;;24.58;17.00;;;;;;;31.67;58.87;97985.84;4983129;28;20066;-74
2022/09/25 07:51:00;;;;;;;20.90;16.50;;;;;;;31.61;58.23;97987.34;4981150;28;20582;-74
2022/09/25 07:53:37;;;;;;;23.00;16.35;;;;;;;31.25;59.71;97992.25;4982643;28;20129;-74
2022/09/25 07:56:37;;;;;;;18.60;16.70;;;;;;;31.77;61.24;97989.97;4984505;28;20414;-74
2022/09/25 07:59:13;;;;;;;18.40;15.23;;;;;;;31.33;61.25;97993.19;4984321;28;20133;-73
2022/09/25 08:02:08;;;;;;;20.27;16.13;;;;;;;31.26;61.15;97993.88;4985380;28;20046;-76
2022/09/25 08:04:44;;;;;;;17.50;15.73;;;;;;;31.08;60.94;97984.44;4986244;28;20139;-74
2022/09/25 08:07:33;;;;;;;20.73;16.92;;;;;;;31.53;61.17;97989.22;4963264;28;20038;-73
2022/09/25 08:10:22;;;;;;;17.52;15.73;;;;;;;31.42;59.80;97991.78;4988265;28;20057;-74
2022/09/25 08:13:05;;;;;;;22.13;16.73;;;;;;;31.87;58.74;97988.53;4986187;28;20042;-73
2022/09/25 08:16:03;;;;;;;17.67;15.76;;;;;;;32.14;60.00;97990.16;4940157;28;10001342;-74
2022/09/25 08:18:46;;;;;;;20.60;15.93;;;;;;;32.11;59.81;97993.69;4963155;28;20249;-73
2022/09/25 08:21:35;;;;;;;24.77;15.70;;;;;;;32.23;61.01;97991.84;4982065;28;20105;-73
2022/09/25 08:24:30;;;;;;;11.93;10.68;;;;;;;32.11;60.66;97993.69;4985933;28;20050;-73
2022/09/25 08:27:06;;;;;;;13.82;9.90;;;;;;;32.01;60.19;97997.06;4978555;28;20054;-70
2022/09/25 08:30:02;;;;;;;;;;;;;;;31.55;60.53;97995.19;4987228;28;20041;-71
2022/09/25 08:32:37;;;;;;;11.07;9.70;;;;;;;32.15;61.54;97991.75;4984417;28;20356;-71
2022/09/25 08:35:34;;;;;;;12.35;10.13;;;;;;;31.84;61.01;97995.63;4967773;28;20057;-70
2022/09/25 08:38:17;;;;;;;14.45;10.80;;;;;;;32.37;61.75;98000.38;4983914;28;20061;-72
2022/09/25 08:41:11;;;;;;;11.68;10.38;;;;;;;32.14;60.92;97998.50;4970226;28;20105;-72
2022/09/25 08:44:21;;;;;;;10.63;9.63;;;;;;;31.78;60.77;98002.69;4983951;28;20056;-72
2022/09/25 08:50:23;;;;;;;11.00;10.00;;;;;;;31.66;61.05;97995.34;4926496;28;20066;-72
2022/09/25 08:53:14;;;;;;;11.27;10.18;;;;;;;30.98;61.64;97999.69;4983581;28;20049;-72
2022/09/25 08:56:18;;;;;;;14.20;10.30;;;;;;;31.53;62.76;97999.50;4970360;28;20050;-74
2022/09/25 08:59:08;;;;;;;11.70;10.52;;;;;;;31.54;62.08;97995.56;4999330;28;20137;-72
2022/09/25 09:02:01;;;;;;;11.68;10.48;;;;;;;31.83;60.87;98004.31;4984433;28;20058;-71
2022/09/25 09:05:00;;;;;;;11.77;10.57;;;;;;;31.69;60.92;97994.59;4985820;28;20058;-72
2022/09/25 09:07:46;;;;;;;13.95;10.70;;;;;;;32.04;60.78;97992.78;4985428;28;20046;-72
2022/09/25 09:10:50;;;;;;;9.55;8.65;;;;;;;32.10;59.95;97992.09;4986541;28;20082;-71
2022/09/25 09:13:47;;;;;;;10.63;9.50;;;;;;;32.35;60.37;97997.16;4986095;28;20058;-72
2022/09/25 09:17:05;;;;;;;11.53;10.33;;;;;;;31.99;59.59;97996.66;4966971;28;20053;-72
2022/09/25 09:19:52;;;;;;;11.77;10.55;;;;;;;31.90;59.46;98004.44;4987010;28;20138;-71
2022/09/25 09:22:52;;;;;;;11.65;8.90;;;;;;;32.04;60.23;97999.13;4985526;28;20474;-72
2022/09/25 09:25:50;;;;;;;9.65;8.75;;;;;;;32.04;59.55;97999.13;4983264;28;20046;-72
2022/09/25 09:29:06;;;;;;;9.40;8.38;;;;;;;32.14;59.66;97997.66;4982703;28;20425;-71
2022/09/25 09:32:32;;;;;;;10.73;9.63;;;;;;;32.07;59.04;98006.72;4982541;28;20050;-71
2022/09/25 09:35:30;;;;;;;9.90;8.43;;;;;;;31.89;60.67;98003.66;4984984;28;20295;-67
2022/09/25 09:38:41;;;;;;;12.13;9.68;;;;;;;32.36;60.49;98001.53;4983634;28;20081;-73
2022/09/25 09:42:35;;;;;;;11.57;9.77;;;;;;;32.09;58.46;98007.13;4985766;28;20052;-70
2022/09/25 09:45:27;;;;;;;10.73;9.60;;;;;;;31.92;59.79;97996.53;4908755;28;20051;-69
2022/09/25 09:48:30;;;;;;;16.15;10.20;;;;;;;31.63;60.69;98007.19;4982697;28;20057;-68
2022/09/25 09:51:33;;;;;;;10.65;8.80;;;;;;;31.37;60.73;98021.78;4984582;28;20046;-69
2022/09/25 09:54:42;;;;;;;9.48;8.48;;;;;;;31.57;62.40;98020.56;4985633;28;20703;-70
2022/09/25 09:57:36;;;;;;;9.23;8.30;;;;;;;31.45;61.41;98014.38;4639658;28;10000353;-69
2022/09/25 10:00:25;;;;;;;8.93;7.75;;;;;;;31.42;61.54;98008.41;4980562;28;20061;-70
2022/09/25 10:03:17;;;;;;;8.45;7.65;;;;;;;31.42;61.97;98005.63;4982471;28;20154;-72
2022/09/25 10:06:19;;;;;;;18.08;8.43;;;;;;;31.43;62.43;98020.28;4984615;28;20054;-70
2022/09/25 10:08:56;;;;;;;8.85;7.90;;;;;;;31.30;60.97;98025.25;4976131;28;20045;-69
2022/09/25 10:12:03;;;;;;;12.93;8.55;;;;;;;31.36;62.23;98025.72;4982415;28;20711;-74
2022/09/25 10:14:45;;;;;;;11.32;7.97;;;;;;;31.53;61.97;98018.94;4982182;28;20054;-71
2022/09/25 10:17:36;;;;;;;8.98;8.05;;;;;;;31.54;61.97;98018.53;4978852;28;20131;-75
2022/09/25 10:20:27;;;;;;;15.05;9.02;;;;;;;31.10;63.42;98023.66;4994472;28;20058;-74
2022/09/25 10:23:25;;;;;;;11.50;9.20;;;;;;;31.20;61.35;98028.59;4989420;28;20116;-76
2022/09/25 10:26:01;;;;;;;10.68;9.38;;;;;;;31.30;61.82;98027.19;4994955;28;20073;-71
2022/09/25 10:28:57;;;;;;;9.77;8.88;;;;;;;31.21;62.33;98035.75;4991979;28;20152;-72
2022/09/25 10:31:37;;;;;;;9.90;8.90;;;;;;;31.27;61.82;98025.16;4981606;28;20179;-72
2022/09/25 10:34:28;;;;;;;10.45;9.35;;;;;;;31.11;62.03;98019.72;4982068;28;20054;-72
2022/09/25 10:37:25;;;;;;;14.90;9.40;;;;;;;31.10;62.89;98030.00;4986562;28;20042;-73
2022/09/25 10:40:32;;;;;;;10.87;9.80;;;;;;;30.99;63.03;98026.22;4986980;28;20043;-72
2022/09/25 10:43:16;;;;;;;14.43;11.35;;;;;;;30.95;62.60;98023.38;4986410;28;20136;-72
2022/09/25 10:46:13;;;;;;;11.98;8.02;;;;;;;30.76;63.49;98029.72;4988554;28;20395;-73
2022/09/25 10:52:57;;;;;;;6.35;5.72;;;;;;;30.69;65.35;98037.06;4987485;28;20065;-72
2022/09/25 10:55:59;;;;;;;5.32;4.82;;;;;;;30.62;66.08;98030.22;4989017;28;20053;-73
2022/09/25 10:58:55;;;;;;;5.15;4.60;;;;;;;30.41;67.00;98036.13;4989156;28;20137;-73
2022/09/25 11:01:41;;;;;;;5.93;4.85;;;;;;;30.73;66.81;98043.50;4988153;28;20054;-72
2022/09/25 11:04:39;;;;;;;11.88;5.43;;;;;;;30.53;66.83;98045.47;4989243;28;20058;-72
2022/09/25 11:07:23;;;;;;;5.63;4.53;;;;;;;30.46;67.46;98051.66;4988706;28;20054;-72
2022/09/25 11:10:32;;;;;;;4.88;4.38;;;;;;;30.49;67.34;98056.44;4981832;28;20058;-72
2022/09/25 11:13:19;;;;;;;4.80;4.10;;;;;;;30.59;66.85;98052.31;4986661;28;20064;-72
2022/09/25 11:16:16;;;;;;;5.68;4.43;;;;;;;30.23;67.99;98054.28;4987287;28;20054;-71
2022/09/25 11:19:10;;;;;;;4.50;3.88;;;;;;;30.13;68.14;98052.84;4986907;28;20039;-73
2022/09/25 11:22:29;;;;;;;3.50;3.00;;;;;;;30.14;68.05;98065.53;4986755;28;20057;-72
2022/09/25 11:25:23;;;;;;;3.78;3.08;;;;;;;29.72;69.95;98068.84;4983462;28;20057;-72
2022/09/25 11:28:37;;;;;;;5.50;3.45;;;;;;;29.77;70.12;98065.84;4987107;28;20062;-72
2022/09/25 11:31:20;;;;;;;3.80;3.40;;;;;;;30.08;69.38;98066.97;4982279;28;20042;-72
2022/09/25 11:34:46;;;;;;;5.10;3.35;;;;;;;30.19;68.67;98064.44;4991106;28;20054;-71
2022/09/25 11:37:52;;;;;;;3.97;3.58;;;;;;;29.88;69.82;98065.31;4986466;28;20370;-72
2022/09/25 11:41:15;;;;;;;;;;;;;;;30.07;69.15;98068.13;4973059;28;20575;-72
2022/09/25 11:44:33;;;;;;;5.82;3.90;;;;;;;29.68;70.00;98070.72;4963296;28;20301;-72
2022/09/25 11:47:36;;;;;;;4.30;3.63;;;;;;;29.86;69.61;98071.97;4883035;29;20680;-72
2022/09/25 11:50:23;;;;;;;4.22;3.40;;;;;;;29.63;70.81;98071.78;4988255;28;20054;-72
2022/09/25 11:53:16;;;;;;;9.40;3.83;;;;;;;29.70;70.69;98073.94;4988455;28;20054;-72
2022/09/25 11:56:28;;;;;;;5.97;3.42;;;;;;;29.50;70.69;98072.22;4987499;28;20064;-72
2022/09/25 11:59:54;;;;;;;6.88;3.63;;;;;;;29.70;71.15;98087.75;4967091;28;20476;-71
2022/09/25 12:03:16;;;;;;;4.32;3.40;;;;;;;29.84;70.88;98087.34;4962741;28;20141;-72
2022/09/25 12:06:15;;;;;;;4.35;3.33;;;;;;;29.89;71.23;98089.06;4970708;28;20057;-71
2022/09/25 12:09:32;;;;;;;4.63;3.25;;;;;;;29.42;72.75;98094.13;4986882;28;20050;-72
2022/09/25 12:12:23;;;;;;;5.45;3.22;;;;;;;29.35;73.05;98102.25;4965970;28;20066;-72
2022/09/25 12:15:48;;;;;;;4.72;3.45;;;;;;;29.40;72.47;98107.50;4968133;28;20065;-72
2022/09/25 12:19:04;;;;;;;3.85;3.40;;;;;;;29.35;72.58;98113.31;4985965;28;20133;-73
2022/09/25 12:22:14;;;;;;;4.43;3.28;;;;;;;29.38;72.72;98120.88;4968495;28;20086;-72
2022/09/25 12:25:34;;;;;;;4.55;3.70;;;;;;;29.41;72.37;98125.72;4976565;28;20153;-72
2022/09/25 12:28:26;;;;;;;4.30;3.15;;;;;;;29.38;72.19;98128.38;4938858;28;20050;-70
2022/09/25 12:31:27;;;;;;;4.32;3.70;;;;;;;29.38;72.34;98123.66;4986665;28;20132;-70
2022/09/25 12:34:16;;;;;;;3.85;3.40;;;;;;;29.27;72.83;98123.38;4987379;28;20121;-70
2022/09/25 12:37:42;;;;;;;4.15;3.53;;;;;;;29.40;71.97;98121.34;4977551;28;20444;-70
2022/09/25 12:40:57;;;;;;;6.05;3.38;;;;;;;29.22;72.60;98128.34;4985272;28;20093;-71
2022/09/25 12:44:07;;;;;;;5.28;4.05;;;;;;;28.82;73.64;98120.88;4986905;28;20054;-71
2022/09/25 12:47:02;;;;;;;5.30;3.93;;;;;;;29.06;72.63;98129.06;4986174;28;20058;-71
2022/09/25 12:50:01;;;;;;;5.93;3.70;;;;;;;28.82;73.65;98129.16;4968787;28;20110;-71
2022/09/25 12:52:50;;;;;;;7.68;4.45;;;;;;;28.86;73.33;98130.84;4986606;28;20046;-69
2022/09/25 12:55:51;;;;;;;4.60;3.92;;;;;;;28.79;73.70;98132.59;4986125;28;20065;-71
2022/09/25 12:58:49;;;;;;;5.10;4.50;;;;;;;28.65;74.11;98131.03;4985961;28;20060;-70
2022/09/25 13:01:45;;;;;;;5.95;3.92;;;;;;;28.81;74.04;98144.91;4967011;28;20470;-69
2022/09/25 13:04:48;;;;;;;5.50;4.18;;;;;;;28.94;73.19;98156.72;4966510;28;20562;-68
2022/09/25 13:08:06;;;;;;;6.93;4.43;;;;;;;28.63;74.20;98166.47;4981241;28;20367;-67
2022/09/25 13:11:44;;;;;;;5.32;4.20;;;;;;;29.02;73.03;98166.81;4969853;28;20101;-68
2022/09/25 13:14:41;;;;;;;8.18;4.88;;;;;;;28.88;73.75;98163.66;4266439;28;10000826;-67
2022/09/25 13:17:30;;;;;;;5.68;5.00;;;;;;;28.86;73.77;98172.28;4963683;28;20565;-72
2022/09/25 13:20:36;;;;;;;6.40;5.22;;;;;;;28.67;74.73;98181.16;4964248;28;20058;-70
2022/09/25 13:23:40;;;;;;;6.82;5.72;;;;;;;28.95;74.40;98182.38;4983621;28;20053;-68
2022/09/25 13:26:26;;;;;;;6.88;6.18;;;;;;;28.68;75.13;98187.50;4983584;28;20054;-70
2022/09/25 13:29:52;;;;;;;8.43;6.30;;;;;;;28.50;76.31;98193.22;4985807;28;20169;-69
2022/09/25 13:32:38;;;;;;;8.82;6.85;;;;;;;28.42;76.80;98198.88;4937009;28;20386;-69
2022/09/25 13:35:37;;;;;;;7.38;6.68;;;;;;;28.27;76.72;98203.91;4966311;28;20047;-72
2022/09/25 13:40:41;;;;;;;8.00;6.50;;;;;;;28.58;76.05;98201.78;4965972;28;20074;-68
2022/09/25 13:41:33;;;;;;;9.13;6.88;;;;;;;28.51;76.15;98213.38;4947637;29;20055;-68
2022/09/25 13:44:40;;;;;;;7.80;6.40;;;;;;;28.36;77.25;98222.34;4948819;28;20516;-68